createdAt,value
2022-09-18T00:00:33.605Z,12.33
2022-09-18T00:04:14.355Z,12.32
2022-09-18T00:07:47.195Z,12.32
2022-09-18T00:11:27.434Z,12.32
2022-09-18T00:15:01.140Z,12.33
2022-09-18T00:18:38.065Z,12.34
2022-09-18T00:22:14.374Z,12.34
2022-09-18T00:25:51.719Z,12.34
2022-09-18T00:29:28.325Z,12.33
2022-09-18T00:33:05.215Z,12.34
2022-09-18T00:36:42.479Z,12.35
2022-09-18T00:40:18.894Z,12.34
2022-09-18T00:44:34.380Z,12.32
2022-09-18T00:47:50.696Z,12.30
2022-09-18T00:51:26.210Z,12.27
2022-09-18T00:55:08.658Z,12.24
2022-09-18T00:58:37.940Z,12.21
2022-09-18T01:02:14.824Z,12.19
2022-09-18T01:06:16.034Z,12.15
2022-09-18T01:09:58.957Z,12.11
2022-09-18T01:13:49.885Z,12.08
2022-09-18T01:17:06.183Z,12.06
2022-09-18T01:20:56.424Z,12.03
2022-09-18T01:24:41.786Z,12.03
2022-09-18T01:28:14.662Z,12.01
2022-09-18T01:32:14.417Z,12.00
2022-09-18T01:35:41.637Z,12.00
2022-09-18T01:43:16.129Z,11.99
2022-09-18T01:46:50.508Z,11.99
2022-09-18T01:50:29.438Z,11.98
2022-09-18T01:54:08.451Z,11.97
2022-09-18T01:57:47.439Z,11.97
2022-09-18T02:01:20.533Z,11.96
2022-09-18T02:04:56.863Z,11.97
2022-09-18T02:08:48.298Z,11.97
2022-09-18T02:12:08.509Z,11.95
2022-09-18T02:15:46.239Z,11.94
2022-09-18T02:19:28.656Z,11.92
2022-09-18T02:23:03.267Z,11.93
2022-09-18T02:26:35.477Z,11.93
2022-09-18T02:30:11.068Z,11.93
2022-09-18T02:33:46.358Z,11.93
2022-09-18T02:37:54.500Z,11.94
2022-09-18T02:41:51.022Z,11.94
2022-09-18T02:45:28.024Z,11.93
2022-09-18T02:48:55.873Z,11.94
2022-09-18T02:52:30.016Z,11.94
2022-09-18T02:56:09.676Z,11.96
2022-09-18T02:59:43.897Z,11.97
2022-09-18T03:03:14.444Z,11.95
2022-09-18T03:06:46.897Z,11.96
2022-09-18T03:10:22.977Z,11.97
2022-09-18T03:13:59.818Z,11.97
2022-09-18T03:17:37.322Z,11.96
2022-09-18T03:21:13.626Z,11.94
2022-09-18T03:24:50.176Z,11.93
2022-09-18T03:28:26.960Z,11.91
2022-09-18T03:32:04.019Z,11.90
2022-09-18T03:35:40.638Z,11.90
2022-09-18T03:39:18.657Z,11.90
2022-09-18T03:42:54.285Z,11.88
2022-09-18T03:46:31.593Z,11.85
2022-09-18T03:50:08.198Z,11.83
2022-09-18T03:53:45.926Z,11.81
2022-09-18T03:57:21.330Z,11.79
2022-09-18T04:00:58.094Z,11.78
2022-09-18T04:04:35.659Z,11.78
2022-09-18T04:08:17.937Z,11.79
2022-09-18T04:11:54.478Z,11.80
2022-09-18T04:15:29.146Z,11.81
2022-09-18T04:19:05.475Z,11.82
2022-09-18T04:22:42.257Z,11.82
2022-09-18T04:26:19.559Z,11.83
2022-09-18T04:29:55.948Z,11.85
2022-09-18T04:33:32.644Z,11.87
2022-09-18T04:37:10.665Z,11.88
2022-09-18T04:40:54.483Z,11.89
2022-09-18T04:44:23.486Z,11.91
2022-09-18T04:48:00.084Z,11.92
2022-09-18T04:51:36.762Z,11.95
2022-09-18T04:58:51.346Z,11.99
2022-09-18T05:02:27.165Z,12.00
2022-09-18T05:06:04.187Z,12.01
2022-09-18T05:09:41.181Z,12.00
2022-09-18T05:13:17.699Z,12.01
2022-09-18T05:16:54.940Z,12.02
2022-09-18T05:20:34.164Z,12.02
2022-09-18T05:24:08.524Z,12.02
2022-09-18T05:27:52.844Z,12.04
2022-09-18T05:31:21.802Z,12.07
2022-09-18T05:34:59.086Z,12.09
2022-09-18T05:38:35.279Z,12.12
2022-09-18T05:42:12.697Z,12.14
2022-09-18T05:45:49.290Z,12.16
2022-09-18T05:49:25.815Z,12.17
2022-09-18T05:53:05.495Z,12.20
2022-09-18T05:56:38.947Z,12.23
2022-09-18T06:00:16.001Z,12.26
2022-09-18T06:03:52.632Z,12.28
2022-09-18T06:07:32.785Z,12.31
2022-09-18T06:11:06.437Z,12.34
2022-09-18T06:14:43.357Z,12.37
2022-09-18T06:18:20.176Z,12.41
2022-09-18T06:21:56.549Z,12.45
2022-09-18T06:25:33.484Z,12.47
2022-09-18T06:29:10.237Z,12.53
2022-09-18T06:32:47.308Z,12.61
2022-09-18T06:36:24.038Z,12.69
2022-09-18T06:40:19.681Z,12.72
2022-09-18T06:43:38.047Z,12.73
2022-09-18T06:47:14.724Z,12.75
2022-09-18T06:50:56.242Z,12.83
2022-09-18T06:54:28.550Z,12.98
2022-09-18T06:58:05.086Z,13.16
2022-09-18T07:01:42.405Z,13.32
2022-09-18T07:05:18.668Z,13.44
2022-09-18T07:08:56.788Z,13.51
2022-09-18T07:12:32.449Z,13.62
2022-09-18T07:16:09.260Z,13.81
2022-09-18T07:19:45.950Z,13.98
2022-09-18T07:23:24.499Z,14.08
2022-09-18T07:26:59.339Z,14.18
2022-09-18T07:30:40.348Z,14.26
2022-09-18T07:34:13.246Z,14.29
2022-09-18T07:37:49.639Z,14.32
2022-09-18T07:41:26.622Z,14.41
2022-09-18T07:45:03.997Z,14.51
2022-09-18T07:48:40.496Z,14.63
2022-09-18T07:52:18.258Z,14.78
2022-09-18T07:55:56.019Z,14.94
2022-09-18T07:59:30.838Z,15.07
2022-09-18T08:03:11.998Z,15.16
2022-09-18T08:06:44.178Z,15.20
2022-09-18T08:10:20.921Z,15.25
2022-09-18T08:13:57.756Z,15.28
2022-09-18T08:21:11.962Z,15.38
2022-09-18T08:25:08.617Z,15.42
2022-09-18T08:28:25.054Z,15.44
2022-09-18T08:32:06.510Z,15.46
2022-09-18T08:35:38.744Z,15.53
2022-09-18T08:39:16.156Z,15.57
2022-09-18T08:43:31.424Z,15.65
2022-09-18T08:47:08.923Z,15.70
2022-09-18T08:50:18.428Z,15.74
2022-09-18T08:57:56.810Z,15.91
2022-09-18T09:01:19.189Z,16.00
2022-09-18T09:05:02.468Z,16.06
2022-09-18T09:08:58.216Z,16.13
2022-09-18T09:12:19.784Z,16.19
2022-09-18T09:16:04.191Z,16.32
2022-09-18T09:19:35.346Z,16.47
2022-09-18T09:23:05.523Z,16.58
2022-09-18T09:26:37.304Z,16.71
2022-09-18T09:30:16.636Z,16.83
2022-09-18T09:34:11.042Z,16.97
2022-09-18T09:37:50.820Z,17.06
2022-09-18T09:41:31.789Z,17.14
2022-09-18T09:44:53.088Z,17.22
2022-09-18T09:48:41.498Z,17.29
2022-09-18T09:52:11.349Z,17.41
2022-09-18T09:55:39.107Z,17.55
2022-09-18T09:59:31.925Z,17.67
2022-09-18T10:03:23.466Z,17.81
2022-09-18T10:06:54.797Z,17.94
2022-09-18T10:10:17.155Z,18.05
2022-09-18T10:13:50.608Z,18.13
2022-09-18T10:17:19.080Z,18.21
2022-09-18T10:20:59.199Z,18.24
2022-09-18T10:24:49.591Z,18.31
2022-09-18T10:28:13.702Z,18.37
2022-09-18T10:31:56.097Z,18.36
2022-09-18T10:35:41.833Z,18.30
2022-09-18T10:39:00.304Z,18.20
2022-09-18T10:42:34.944Z,18.01
2022-09-18T10:49:57.021Z,17.24
2022-09-18T10:53:24.740Z,16.97
2022-09-18T10:57:26.400Z,16.76
2022-09-18T11:00:42.408Z,16.62
2022-09-18T11:04:18.088Z,16.56
2022-09-18T11:07:58.638Z,16.54
2022-09-18T11:11:38.908Z,16.55
2022-09-18T11:15:08.267Z,16.56
2022-09-18T11:18:47.969Z,16.59
2022-09-18T11:22:42.981Z,16.62
2022-09-18T11:26:27.082Z,16.65
2022-09-18T11:29:42.428Z,16.68
2022-09-18T11:33:50.000Z,16.69
2022-09-18T11:37:13.386Z,16.72
2022-09-18T11:40:50.748Z,16.77
2022-09-18T11:44:29.062Z,16.82
2022-09-18T11:48:15.371Z,16.87
2022-09-18T11:52:17.707Z,16.90
2022-09-18T11:55:46.708Z,16.92
2022-09-18T11:59:44.359Z,16.91
2022-09-18T12:03:00.774Z,16.88
2022-09-18T12:06:58.457Z,16.84
2022-09-18T12:10:32.598Z,16.80
2022-09-18T12:13:45.810Z,16.78
2022-09-18T12:21:03.392Z,16.72
2022-09-18T12:24:32.279Z,16.70
2022-09-18T12:28:31.588Z,16.69
2022-09-18T12:32:04.775Z,16.68
2022-09-18T12:36:04.784Z,16.67
2022-09-18T12:39:26.850Z,16.66
2022-09-18T12:43:20.148Z,16.63
2022-09-18T12:46:51.748Z,16.60
2022-09-18T12:50:39.942Z,16.58
2022-09-18T12:54:17.052Z,16.56
2022-09-18T12:57:33.106Z,16.54
2022-09-18T13:01:08.985Z,16.52
2022-09-18T13:04:48.995Z,16.51
2022-09-18T13:08:36.134Z,16.49
2022-09-18T13:11:58.912Z,16.43
2022-09-18T13:15:38.757Z,16.37
2022-09-18T13:19:14.268Z,16.28
2022-09-18T13:22:45.037Z,16.12
2022-09-18T13:26:21.718Z,15.92
2022-09-18T13:29:59.253Z,15.74
2022-09-18T13:33:32.626Z,15.60
2022-09-18T13:37:17.088Z,15.46
2022-09-18T13:41:08.444Z,15.25
2022-09-18T13:44:29.367Z,15.10
2022-09-18T13:51:37.754Z,14.93
2022-09-18T13:55:13.270Z,14.89
2022-09-18T13:59:20.653Z,14.84
2022-09-18T14:02:28.654Z,14.85
2022-09-18T14:06:42.761Z,14.85
2022-09-18T14:09:59.767Z,14.86
2022-09-18T14:13:29.909Z,14.87
2022-09-18T14:17:14.769Z,14.88
2022-09-18T14:20:34.210Z,14.88
2022-09-18T14:24:36.389Z,14.89
2022-09-18T14:27:57.404Z,14.88
2022-09-18T14:31:29.830Z,14.88
2022-09-18T14:35:30.536Z,14.85
2022-09-18T14:38:44.310Z,14.83
2022-09-18T14:42:42.080Z,14.81
2022-09-18T14:45:57.837Z,14.78
2022-09-18T14:49:43.597Z,14.74
2022-09-18T14:53:28.159Z,14.71
2022-09-18T14:56:50.734Z,14.69
2022-09-18T15:00:30.336Z,14.65
2022-09-18T15:04:05.197Z,14.62
2022-09-18T15:07:40.359Z,14.58
2022-09-18T15:11:18.052Z,14.56
2022-09-18T15:14:52.828Z,14.55
2022-09-18T15:18:31.040Z,14.53
2022-09-18T15:22:06.094Z,14.53
2022-09-18T15:25:45.999Z,14.51
2022-09-18T15:29:43.013Z,14.50
2022-09-18T15:33:05.360Z,14.52
2022-09-18T15:36:37.055Z,14.52
2022-09-18T15:40:19.384Z,14.47
2022-09-18T15:43:50.388Z,14.38
2022-09-18T15:47:33.194Z,14.32
2022-09-18T15:51:25.902Z,14.27
2022-09-18T15:54:38.182Z,14.20
2022-09-18T15:58:43.614Z,14.14
2022-09-18T16:01:51.596Z,14.09
2022-09-18T16:05:31.427Z,14.06
2022-09-18T16:09:07.798Z,14.03
2022-09-18T16:12:49.408Z,14.01
2022-09-18T16:16:24.344Z,14.00
2022-09-18T16:20:02.096Z,13.98
2022-09-18T16:23:50.129Z,13.96
2022-09-18T16:27:22.542Z,13.94
2022-09-18T16:30:47.257Z,13.91
2022-09-18T16:34:29.685Z,13.89
2022-09-18T16:37:59.327Z,13.86
2022-09-18T16:41:36.200Z,13.83
2022-09-18T16:45:15.546Z,13.80
2022-09-18T16:48:50.060Z,13.77
2022-09-18T16:52:26.909Z,13.73
2022-09-18T16:56:07.036Z,13.71
2022-09-18T16:59:42.866Z,13.68
2022-09-18T17:03:18.347Z,13.65
2022-09-18T17:06:53.552Z,13.63
2022-09-18T17:10:32.029Z,13.60
2022-09-18T17:14:07.385Z,13.57
2022-09-18T17:17:45.634Z,13.54
2022-09-18T17:21:21.006Z,13.50
2022-09-18T17:24:57.508Z,13.49
2022-09-18T17:28:36.298Z,13.46
2022-09-18T17:32:12.101Z,13.42
2022-09-18T17:35:48.077Z,13.39
2022-09-18T17:39:24.798Z,13.37
2022-09-18T17:43:01.687Z,13.35
2022-09-18T17:46:38.247Z,13.32
2022-09-18T17:50:15.016Z,13.28
2022-09-18T17:53:58.132Z,13.24
2022-09-18T17:57:31.285Z,13.20
2022-09-18T18:01:13.329Z,13.18
2022-09-18T18:04:43.584Z,13.15
2022-09-18T18:08:19.378Z,13.13
2022-09-18T18:11:59.219Z,13.10
2022-09-18T18:15:32.826Z,13.07
2022-09-18T18:19:14.496Z,13.04
2022-09-18T18:22:46.959Z,13.02
2022-09-18T18:26:22.989Z,12.99
2022-09-18T18:30:00.557Z,12.98
2022-09-18T18:33:37.206Z,12.96
2022-09-18T18:37:13.337Z,12.94
2022-09-18T18:40:52.422Z,12.93
2022-09-18T18:44:27.463Z,12.92
2022-09-18T18:48:06.371Z,12.91
2022-09-18T18:51:43.873Z,12.90
2022-09-18T18:55:18.753Z,12.90
2022-09-18T18:59:00.174Z,12.90
2022-09-18T19:02:38.179Z,12.90
2022-09-18T19:06:08.138Z,12.89
2022-09-18T19:09:44.818Z,12.88
2022-09-18T19:13:25.126Z,12.86
2022-09-18T19:16:59.233Z,12.82
2022-09-18T19:20:36.827Z,12.79
2022-09-18T19:24:12.568Z,12.74
2022-09-18T19:27:48.839Z,12.70
2022-09-18T19:31:28.194Z,12.67
2022-09-18T19:35:02.587Z,12.63
2022-09-18T19:38:39.344Z,12.60
2022-09-18T19:42:17.437Z,12.56
2022-09-18T19:45:52.801Z,12.53
2022-09-18T19:49:33.638Z,12.51
2022-09-18T19:53:06.905Z,12.49
2022-09-18T19:56:48.185Z,12.47
2022-09-18T20:00:20.314Z,12.45
2022-09-18T20:03:59.158Z,12.44
2022-09-18T20:07:34.259Z,12.44
2022-09-18T20:11:10.239Z,12.45
2022-09-18T20:14:46.869Z,12.46
2022-09-18T20:18:24.179Z,12.47
2022-09-18T20:22:03.117Z,12.45
2022-09-18T20:25:39.379Z,12.44
2022-09-18T20:29:16.130Z,12.44
2022-09-18T20:32:51.926Z,12.42
2022-09-18T20:36:28.914Z,12.40
2022-09-18T20:40:07.173Z,12.39
2022-09-18T20:43:44.330Z,12.36
2022-09-18T20:47:18.207Z,12.33
2022-09-18T20:50:56.648Z,12.30
2022-09-18T20:54:32.787Z,12.27
2022-09-18T20:58:08.810Z,12.26
2022-09-18T21:01:47.198Z,12.25
2022-09-18T21:05:22.166Z,12.25
2022-09-18T21:09:00.975Z,12.25
2022-09-18T21:12:39.212Z,12.25
2022-09-18T21:16:14.252Z,12.26
2022-09-18T21:19:50.544Z,12.27
2022-09-18T21:23:44.649Z,12.31
2022-09-18T21:27:03.208Z,12.35
2022-09-18T21:30:39.808Z,12.39
2022-09-18T21:34:24.633Z,12.43
2022-09-18T21:37:54.708Z,12.47
2022-09-18T21:41:30.791Z,12.50
2022-09-18T21:45:07.802Z,12.52
2022-09-18T21:48:44.609Z,12.50
2022-09-18T21:52:20.550Z,12.47
2022-09-18T21:56:08.654Z,12.44
2022-09-18T21:59:36.187Z,12.41
2022-09-18T22:03:10.962Z,12.38
2022-09-18T22:06:51.081Z,12.35
2022-09-18T22:10:25.861Z,12.34
2022-09-18T22:14:04.011Z,12.32
2022-09-18T22:17:39.311Z,12.31
2022-09-18T22:21:31.392Z,12.29
2022-09-18T22:24:52.111Z,12.28
2022-09-18T22:28:28.820Z,12.28
2022-09-18T22:32:06.133Z,12.28
2022-09-18T22:35:42.197Z,12.26
2022-09-18T22:39:20.671Z,12.25
2022-09-18T22:42:56.483Z,12.25
2022-09-18T22:46:33.353Z,12.25
2022-09-18T22:50:09.771Z,12.24
2022-09-18T22:53:52.719Z,12.23
2022-09-18T22:57:23.412Z,12.21
2022-09-18T23:01:14.498Z,12.21
2022-09-18T23:04:37.039Z,12.19
2022-09-18T23:08:13.813Z,12.18
2022-09-18T23:11:54.317Z,12.15
2022-09-18T23:15:27.573Z,12.12
2022-09-18T23:19:14.432Z,12.07
2022-09-18T23:22:41.251Z,12.04
2022-09-18T23:26:23.283Z,12.01
2022-09-18T23:29:54.255Z,11.99
2022-09-18T23:33:31.235Z,11.98
2022-09-18T23:37:08.216Z,11.97
2022-09-18T23:40:44.692Z,11.97
2022-09-18T23:44:22.881Z,11.96
2022-09-18T23:47:58.275Z,11.93
2022-09-18T23:51:37.392Z,11.89
2022-09-18T23:55:12.174Z,11.86
2022-09-18T23:58:53.417Z,11.81
